createdAt,value
2023-03-24T00:01:25.818Z,50.95
2023-03-24T00:10:24.246Z,50.12
2023-03-24T00:12:56.812Z,50.24
2023-03-24T00:15:26.973Z,50.75
2023-03-24T00:17:59.601Z,50.29
2023-03-24T00:20:32.533Z,50.92
2023-03-24T00:23:01.114Z,50.86
2023-03-24T00:25:36.661Z,50.93
2023-03-24T00:28:10.129Z,50.84
2023-03-24T00:30:38.880Z,51.00
2023-03-24T00:34:03.196Z,51.27
2023-03-24T00:36:31.936Z,51.49
2023-03-24T00:39:00.543Z,51.92
2023-03-24T00:41:30.561Z,51.59
2023-03-24T00:44:04.026Z,51.60
2023-03-24T00:46:33.797Z,51.53
2023-03-24T00:49:06.467Z,52.48
2023-03-24T00:51:38.137Z,52.48
2023-03-24T00:54:07.251Z,52.87
2023-03-24T00:56:41.045Z,52.77
2023-03-24T00:59:11.250Z,52.94
2023-03-24T01:01:41.705Z,53.03
2023-03-24T01:04:12.095Z,52.79
2023-03-24T01:12:51.540Z,53.38
2023-03-24T01:15:24.852Z,53.36
2023-03-24T01:17:55.970Z,53.56
2023-03-24T01:20:26.667Z,53.58
2023-03-24T01:22:59.209Z,53.17
2023-03-24T01:25:28.332Z,53.25
2023-03-24T01:27:59.415Z,53.10
2023-03-24T01:30:31.997Z,53.42
2023-03-24T01:33:00.807Z,53.54
2023-03-24T01:35:31.014Z,53.26
2023-03-24T01:38:00.410Z,53.31
2023-03-24T01:40:31.880Z,53.28
2023-03-24T01:43:03.503Z,53.22
2023-03-24T01:45:57.910Z,53.36
2023-03-24T01:48:33.171Z,53.67
2023-03-24T01:51:06.201Z,53.15
2023-03-24T01:53:37.457Z,53.80
2023-03-24T01:56:08.408Z,53.48
2023-03-24T02:01:22.238Z,53.52
2023-03-24T02:03:53.407Z,53.54
2023-03-24T02:06:27.226Z,53.57
2023-03-24T02:08:59.547Z,53.86
2023-03-24T02:11:32.721Z,53.54
2023-03-24T02:14:05.889Z,53.88
2023-03-24T02:16:50.483Z,53.74
2023-03-24T02:19:52.554Z,53.75
2023-03-24T02:22:51.552Z,53.63
2023-03-24T02:25:46.774Z,53.58
2023-03-24T02:28:32.508Z,53.79
2023-03-24T02:31:42.669Z,53.99
2023-03-24T02:34:50.485Z,53.88
2023-03-24T02:37:47.526Z,54.06
2023-03-24T02:40:36.993Z,54.02
2023-03-24T02:43:19.822Z,53.88
2023-03-24T02:46:02.284Z,53.90
2023-03-24T02:48:39.156Z,53.90
2023-03-24T02:51:15.880Z,54.10
2023-03-24T02:53:55.869Z,54.30
2023-03-24T02:56:36.356Z,54.30
2023-03-24T02:59:06.834Z,54.10
2023-03-24T03:01:41.510Z,54.38
2023-03-24T03:04:13.913Z,54.54
2023-03-24T03:06:46.912Z,54.33
2023-03-24T03:09:19.272Z,54.21
2023-03-24T03:11:51.677Z,54.36
2023-03-24T03:14:25.862Z,54.34
2023-03-24T03:17:04.381Z,54.54
2023-03-24T03:19:38.844Z,54.42
2023-03-24T03:22:16.828Z,54.54
2023-03-24T03:24:50.654Z,54.37
2023-03-24T03:27:28.225Z,54.49
2023-03-24T03:30:03.174Z,54.65
2023-03-24T03:32:35.756Z,54.27
2023-03-24T03:35:12.621Z,54.38
2023-03-24T03:37:49.683Z,54.51
2023-03-24T03:40:24.985Z,54.32
2023-03-24T03:42:55.599Z,54.69
2023-03-24T03:45:25.184Z,54.29
2023-03-24T03:47:55.550Z,54.36
2023-03-24T03:50:24.931Z,54.66
2023-03-24T03:52:54.037Z,54.59
2023-03-24T03:55:22.930Z,54.42
2023-03-24T03:57:53.175Z,54.25
2023-03-24T04:00:26.343Z,54.50
2023-03-24T04:03:17.736Z,54.83
2023-03-24T04:05:53.181Z,54.49
2023-03-24T04:08:31.540Z,54.83
2023-03-24T04:11:39.182Z,54.97
2023-03-24T04:14:21.812Z,55.12
2023-03-24T04:17:03.326Z,54.96
2023-03-24T04:19:59.104Z,54.96
2023-03-24T04:22:45.339Z,54.50
2023-03-24T04:25:23.202Z,54.83
2023-03-24T04:28:02.485Z,55.00
2023-03-24T04:30:44.748Z,55.05
2023-03-24T04:33:23.600Z,55.20
2023-03-24T04:35:59.624Z,54.92
2023-03-24T04:38:33.668Z,55.11
2023-03-24T04:41:03.399Z,55.00
2023-03-24T04:43:37.057Z,54.99
2023-03-24T04:46:09.127Z,54.88
2023-03-24T04:48:39.482Z,55.22
2023-03-24T04:51:10.930Z,54.87
2023-03-24T04:53:41.230Z,55.27
2023-03-24T04:56:32.672Z,54.83
2023-03-24T04:59:01.330Z,55.12
2023-03-24T05:01:33.093Z,55.38
2023-03-24T05:04:04.670Z,55.21
2023-03-24T05:06:37.663Z,55.38
2023-03-24T05:09:07.982Z,55.30
2023-03-24T05:11:41.261Z,55.41
2023-03-24T05:14:17.584Z,55.49
2023-03-24T05:16:49.773Z,55.14
2023-03-24T05:19:21.070Z,55.34
2023-03-24T05:21:59.447Z,55.54
2023-03-24T05:24:29.439Z,55.84
2023-03-24T05:26:59.449Z,55.46
2023-03-24T05:29:28.070Z,55.81
2023-03-24T05:32:06.008Z,55.75
2023-03-24T05:34:41.382Z,55.81
2023-03-24T05:37:23.728Z,55.52
2023-03-24T05:40:00.121Z,55.73
2023-03-24T05:48:15.333Z,55.49
2023-03-24T05:50:46.210Z,55.76
2023-03-24T05:53:15.632Z,55.78
2023-03-24T05:55:54.922Z,55.66
2023-03-24T06:01:23.705Z,55.85
2023-03-24T06:04:12.800Z,55.22
2023-03-24T06:06:55.828Z,55.71
2023-03-24T06:09:26.147Z,55.66
2023-03-24T06:12:04.440Z,56.24
2023-03-24T06:14:34.410Z,55.67
2023-03-24T06:17:03.346Z,55.42
2023-03-24T06:19:34.265Z,55.68
2023-03-24T06:22:11.215Z,55.75
2023-03-24T06:24:40.365Z,55.71
2023-03-24T06:27:10.125Z,55.72
2023-03-24T06:29:39.194Z,55.68
2023-03-24T06:32:08.581Z,55.36
2023-03-24T06:34:38.963Z,55.63
2023-03-24T06:37:09.045Z,55.81
2023-03-24T06:39:38.637Z,55.54
2023-03-24T06:42:10.179Z,55.39
2023-03-24T06:44:40.009Z,55.43
2023-03-24T06:47:08.267Z,55.43
2023-03-24T06:49:37.679Z,55.57
2023-03-24T06:52:35.168Z,55.52
2023-03-24T06:55:18.472Z,55.53
2023-03-24T06:57:51.133Z,55.32
2023-03-24T07:00:21.582Z,54.98
2023-03-24T07:02:51.194Z,55.35
2023-03-24T07:05:20.099Z,55.48
2023-03-24T07:08:16.745Z,55.10
2023-03-24T07:10:39.800Z,54.99
2023-03-24T07:13:09.094Z,55.29
2023-03-24T07:15:38.876Z,54.84
2023-03-24T07:18:08.894Z,54.93
2023-03-24T07:20:39.252Z,54.74
2023-03-24T07:23:09.671Z,54.40
2023-03-24T07:25:39.776Z,54.11
2023-03-24T07:28:08.784Z,54.29
2023-03-24T07:30:46.182Z,54.29
2023-03-24T07:33:20.976Z,54.10
2023-03-24T07:35:49.536Z,54.01
2023-03-24T07:38:19.494Z,53.85
2023-03-24T07:40:48.310Z,53.90
2023-03-24T07:43:17.293Z,54.02
2023-03-24T07:45:46.998Z,53.90
2023-03-24T07:48:15.479Z,53.68
2023-03-24T07:50:44.499Z,53.41
2023-03-24T07:53:18.784Z,53.55
2023-03-24T07:55:50.649Z,53.34
2023-03-24T07:58:19.810Z,53.34
2023-03-24T08:00:48.229Z,53.35
2023-03-24T08:03:16.739Z,53.37
2023-03-24T08:05:46.601Z,53.25
2023-03-24T08:08:29.527Z,53.17
2023-03-24T08:13:46.541Z,52.98
2023-03-24T08:16:16.168Z,52.81
2023-03-24T08:18:44.721Z,52.56
2023-03-24T08:21:13.447Z,52.56
2023-03-24T08:23:43.006Z,52.38
2023-03-24T08:26:14.564Z,52.42
2023-03-24T08:28:44.981Z,52.08
2023-03-24T08:31:15.852Z,51.98
2023-03-24T08:33:44.945Z,51.63
2023-03-24T08:36:14.165Z,51.49
2023-03-24T08:38:42.909Z,51.24
2023-03-24T08:41:13.843Z,50.93
2023-03-24T08:43:43.465Z,51.34
2023-03-24T08:46:14.071Z,51.71
2023-03-24T08:48:47.378Z,51.37
2023-03-24T08:51:19.446Z,51.69
2023-03-24T08:53:49.888Z,51.29
2023-03-24T08:56:28.892Z,50.90
2023-03-24T08:58:58.956Z,51.00
2023-03-24T09:01:28.585Z,51.29
2023-03-24T09:04:02.904Z,50.79
2023-03-24T09:06:44.702Z,51.19
2023-03-24T09:09:30.005Z,51.26
2023-03-24T09:12:18.413Z,51.01
2023-03-24T09:14:59.481Z,50.28
2023-03-24T09:17:36.153Z,50.06
2023-03-24T09:22:54.144Z,49.74
2023-03-24T09:25:25.094Z,49.46
2023-03-24T09:28:07.159Z,49.88
2023-03-24T09:30:36.509Z,49.43
2023-03-24T09:33:05.674Z,49.36
2023-03-24T09:35:35.732Z,49.18
2023-03-24T09:41:03.304Z,49.10
2023-03-24T09:43:43.168Z,48.42
2023-03-24T09:46:17.068Z,48.05
2023-03-24T09:48:51.496Z,48.17
2023-03-24T09:51:25.711Z,48.16
2023-03-24T09:54:16.124Z,47.91
2023-03-24T09:56:52.061Z,47.41
2023-03-24T09:59:37.242Z,47.75
2023-03-24T10:02:20.940Z,47.90
2023-03-24T10:04:55.020Z,47.72
2023-03-24T10:10:33.954Z,47.40
2023-03-24T10:13:30.937Z,47.39
2023-03-24T10:16:11.179Z,47.63
2023-03-24T10:18:50.827Z,47.32
2023-03-24T10:21:24.260Z,47.41
2023-03-24T10:24:00.409Z,46.22
2023-03-24T10:27:00.839Z,46.05
2023-03-24T10:49:16.737Z,46.35
2023-03-24T11:03:31.823Z,45.54
2023-03-24T11:06:03.054Z,45.99
2023-03-24T11:08:37.693Z,45.99
2023-03-24T11:11:30.538Z,46.14
2023-03-24T11:14:01.588Z,45.69
2023-03-24T11:16:35.780Z,45.58
2023-03-24T11:19:23.024Z,45.41
2023-03-24T11:21:53.928Z,45.69
2023-03-24T11:24:22.508Z,44.90
2023-03-24T11:27:03.563Z,45.36
2023-03-24T11:29:35.110Z,45.29
2023-03-24T11:32:08.763Z,45.34
2023-03-24T11:34:43.299Z,45.08
2023-03-24T11:37:14.980Z,45.43
2023-03-24T11:39:44.764Z,45.86
2023-03-24T11:42:18.065Z,45.81
2023-03-24T11:44:50.329Z,45.41
2023-03-24T11:47:30.744Z,45.27
2023-03-24T11:50:19.472Z,44.84
2023-03-24T11:52:54.833Z,44.22
2023-03-24T11:55:32.296Z,43.80
2023-03-24T11:58:07.564Z,43.48
2023-03-24T12:00:42.167Z,43.65
2023-03-24T12:03:49.296Z,44.07
2023-03-24T12:06:34.307Z,44.75
2023-03-24T12:09:12.576Z,45.43
2023-03-24T12:11:58.832Z,44.83
2023-03-24T12:14:37.094Z,44.51
2023-03-24T12:17:16.482Z,43.62
2023-03-24T12:20:16.502Z,44.57
2023-03-24T12:22:59.987Z,44.16
2023-03-24T12:25:42.288Z,44.83
2023-03-24T12:28:32.715Z,44.64
2023-03-24T12:31:17.483Z,45.09
2023-03-24T12:33:57.661Z,44.91
2023-03-24T12:36:40.012Z,44.40
2023-03-24T12:39:18.707Z,44.58
2023-03-24T12:42:04.538Z,44.83
2023-03-24T12:45:08.558Z,43.64
2023-03-24T12:48:08.337Z,43.61
2023-03-24T12:50:51.642Z,43.59
2023-03-24T12:53:37.262Z,44.04
2023-03-24T12:56:14.374Z,44.21
2023-03-24T12:58:52.115Z,44.15
2023-03-24T13:01:29.692Z,44.15
2023-03-24T13:04:07.644Z,43.99
2023-03-24T13:06:43.322Z,44.07
2023-03-24T13:09:19.530Z,43.84
2023-03-24T13:11:59.805Z,44.28
2023-03-24T13:14:33.423Z,43.93
2023-03-24T13:17:09.260Z,44.09
2023-03-24T13:19:39.464Z,43.89
2023-03-24T13:22:16.249Z,43.34
2023-03-24T13:24:47.584Z,43.79
2023-03-24T13:27:24.976Z,43.04
2023-03-24T13:30:08.284Z,43.39
2023-03-24T13:32:43.006Z,42.69
2023-03-24T13:35:24.158Z,43.48
2023-03-24T13:38:07.636Z,43.51
2023-03-24T13:40:41.892Z,43.61
2023-03-24T13:43:24.169Z,43.10
2023-03-24T13:46:05.609Z,42.70
2023-03-24T13:48:43.634Z,42.94
2023-03-24T13:51:20.460Z,43.01
2023-03-24T13:54:03.403Z,42.67
2023-03-24T13:56:48.465Z,43.38
2023-03-24T13:59:34.096Z,43.60
2023-03-24T14:02:59.729Z,42.69
2023-03-24T14:09:22.920Z,42.57
2023-03-24T14:12:31.124Z,42.58
2023-03-24T14:18:43.156Z,42.16
2023-03-24T14:21:33.069Z,42.51
2023-03-24T14:27:02.466Z,42.27
2023-03-24T14:30:02.045Z,42.43
2023-03-24T14:33:03.922Z,43.03
2023-03-24T14:35:38.858Z,42.54
2023-03-24T14:38:23.948Z,42.27
2023-03-24T14:40:56.253Z,42.60
2023-03-24T14:43:32.573Z,41.11
2023-03-24T14:46:08.548Z,41.02
2023-03-24T14:48:48.800Z,41.64
2023-03-24T14:51:40.289Z,41.26
2023-03-24T15:00:36.916Z,42.19
2023-03-24T15:06:34.469Z,42.22
2023-03-24T15:12:29.513Z,40.76
2023-03-24T15:15:11.987Z,41.03
2023-03-24T15:17:49.286Z,40.81
2023-03-24T15:20:35.579Z,41.01
2023-03-24T15:23:10.119Z,40.37
2023-03-24T15:25:49.702Z,40.33
2023-03-24T15:28:23.274Z,39.15
2023-03-24T15:30:52.270Z,39.23
2023-03-24T15:33:21.941Z,39.20
2023-03-24T15:36:11.606Z,38.56
2023-03-24T15:38:48.591Z,39.42
2023-03-24T15:41:24.858Z,38.70
2023-03-24T15:43:55.587Z,38.29
2023-03-24T15:46:47.141Z,38.01
2023-03-24T16:02:54.157Z,41.71
2023-03-24T16:05:30.604Z,41.34
2023-03-24T16:08:09.994Z,40.55
2023-03-24T16:10:43.300Z,39.76
2023-03-24T16:13:18.386Z,38.99
2023-03-24T16:15:49.715Z,40.12
2023-03-24T16:18:23.968Z,40.33
2023-03-24T16:20:53.604Z,39.84
2023-03-24T16:23:26.866Z,40.18
2023-03-24T16:31:28.395Z,41.24
2023-03-24T16:42:15.888Z,42.66
2023-03-24T16:44:43.972Z,42.77
2023-03-24T16:47:13.160Z,43.19
2023-03-24T16:49:41.424Z,43.80
2023-03-24T16:52:13.624Z,42.92
2023-03-24T16:54:43.362Z,43.49
2023-03-24T16:57:16.524Z,42.92
2023-03-24T16:59:46.523Z,42.47
2023-03-24T17:02:17.775Z,42.98
2023-03-24T17:04:47.221Z,42.98
2023-03-24T17:07:16.143Z,42.25
2023-03-24T17:09:50.725Z,42.23
2023-03-24T17:12:21.172Z,41.84
2023-03-24T17:14:53.017Z,41.92
2023-03-24T17:17:24.090Z,41.82
2023-03-24T17:25:09.924Z,43.36
2023-03-24T17:34:21.507Z,45.39
2023-03-24T17:36:55.963Z,46.10
2023-03-24T17:42:40.334Z,46.80
2023-03-24T17:45:25.573Z,46.71
2023-03-24T17:47:57.178Z,46.72
2023-03-24T17:50:42.827Z,47.17
2023-03-24T17:53:35.924Z,47.04
2023-03-24T17:56:51.988Z,47.38
2023-03-24T18:02:41.951Z,48.09
2023-03-24T18:05:14.334Z,48.24
2023-03-24T18:08:05.511Z,48.43
2023-03-24T18:10:39.118Z,48.61
2023-03-24T18:13:14.902Z,48.63
2023-03-24T18:16:06.630Z,48.87
2023-03-24T18:21:25.056Z,47.98
2023-03-24T18:23:58.238Z,48.12
2023-03-24T18:26:31.986Z,48.02
2023-03-24T18:29:04.010Z,47.83
2023-03-24T18:31:37.468Z,47.54
2023-03-24T18:34:06.321Z,47.91
2023-03-24T18:36:42.929Z,47.73
2023-03-24T18:39:14.269Z,48.68
2023-03-24T18:47:19.329Z,48.82
2023-03-24T18:49:54.782Z,49.83
2023-03-24T18:58:49.836Z,49.45
2023-03-24T19:01:23.256Z,49.34
2023-03-24T19:03:54.271Z,49.74
2023-03-24T19:06:35.433Z,49.95
2023-03-24T19:09:06.590Z,50.70
2023-03-24T19:17:15.344Z,51.46
2023-03-24T19:19:47.972Z,51.52
2023-03-24T19:22:24.276Z,51.53
2023-03-24T19:24:55.460Z,51.73
2023-03-24T19:30:31.825Z,51.73
2023-03-24T19:33:07.581Z,51.52
2023-03-24T19:35:36.907Z,51.39
2023-03-24T19:38:06.134Z,51.41
2023-03-24T19:40:40.984Z,51.38
2023-03-24T19:43:12.615Z,51.17
2023-03-24T19:45:43.271Z,51.12
2023-03-24T19:48:21.520Z,50.65
2023-03-24T19:50:53.491Z,50.65
2023-03-24T19:53:23.894Z,50.90
2023-03-24T20:31:40.909Z,51.58
2023-03-24T20:34:09.709Z,51.13
2023-03-24T20:36:39.314Z,51.04
2023-03-24T20:39:10.630Z,51.49
2023-03-24T20:41:46.134Z,50.76
2023-03-24T20:44:14.510Z,50.88
2023-03-24T20:46:46.050Z,50.70
2023-03-24T20:49:17.052Z,50.89
2023-03-24T20:51:47.661Z,51.01
2023-03-24T20:54:19.529Z,50.84
2023-03-24T20:56:49.036Z,50.52
2023-03-24T20:59:22.381Z,50.26
2023-03-24T21:01:56.887Z,50.01
2023-03-24T21:04:26.285Z,50.03
2023-03-24T21:06:58.559Z,50.59
2023-03-24T21:09:30.784Z,50.40
2023-03-24T21:12:01.407Z,50.35
2023-03-24T21:14:33.171Z,50.65
2023-03-24T21:17:07.026Z,50.26
2023-03-24T21:19:37.515Z,50.58
2023-03-24T21:22:08.196Z,50.57
2023-03-24T21:24:39.813Z,50.37
2023-03-24T21:27:08.466Z,50.09
2023-03-24T21:29:37.238Z,50.21
2023-03-24T21:32:11.665Z,49.99
2023-03-24T21:34:40.318Z,50.83
2023-03-24T21:37:15.189Z,50.49
2023-03-24T21:39:46.264Z,50.22
2023-03-24T21:42:20.238Z,50.70
2023-03-24T21:44:50.867Z,50.31
2023-03-24T21:47:26.064Z,50.42
2023-03-24T21:50:02.369Z,50.30
2023-03-24T21:52:42.247Z,49.90
2023-03-24T21:55:14.774Z,49.94
2023-03-24T22:01:09.324Z,50.02
2023-03-24T22:07:34.148Z,50.19
2023-03-24T22:16:25.598Z,47.70
2023-03-24T22:25:09.564Z,48.41
2023-03-24T22:27:39.783Z,48.77
2023-03-24T22:30:10.723Z,48.60
2023-03-24T22:32:40.834Z,48.63
2023-03-24T22:35:10.276Z,48.60
2023-03-24T22:37:38.815Z,48.34
2023-03-24T22:40:15.175Z,48.07
2023-03-24T22:42:57.371Z,48.33
2023-03-24T22:45:35.893Z,48.21
2023-03-24T22:48:08.535Z,48.11
2023-03-24T22:56:31.710Z,48.48
2023-03-24T23:02:29.879Z,48.86
2023-03-24T23:04:59.331Z,49.16
2023-03-24T23:07:30.938Z,49.28
2023-03-24T23:10:01.456Z,49.43
2023-03-24T23:12:31.930Z,49.32
2023-03-24T23:15:04.226Z,49.85
2023-03-24T23:17:33.012Z,50.19
2023-03-24T23:20:03.338Z,49.78
2023-03-24T23:22:33.191Z,50.36
2023-03-24T23:25:07.170Z,50.12
2023-03-24T23:27:40.243Z,50.24
2023-03-24T23:30:13.520Z,50.44
2023-03-24T23:32:44.608Z,50.59
2023-03-24T23:35:14.481Z,50.35
2023-03-24T23:37:43.457Z,50.17
2023-03-24T23:40:16.041Z,50.64
2023-03-24T23:42:49.008Z,50.63
2023-03-24T23:45:22.112Z,50.75
2023-03-24T23:47:53.001Z,50.87
2023-03-24T23:50:23.309Z,50.69
2023-03-24T23:52:54.916Z,50.62
2023-03-24T23:55:26.042Z,50.45
2023-03-24T23:57:58.807Z,50.50
